• Join FlightAware (Why Join?)
  • Login
  • US Flag 
05:44PM EDT


 

Airport Tracker/Info


-or-


 

Live Flight TrackerFlight Track Log ✈ N983CE ✈ 06-May-2013 ✈ KPTK - KHAO

Flight Track Log - Related Links

Times and Time Zones

All times are in EDT time to prevent confusion due to time zone crossing. See the N983CE flight status page for this flight to view local times or setup timezone preferences in your user account.

Time Position Orientation Groundspeed Altitude Reporting Facility
EDT Latitude Longitude Course Direction KTS MPH feet Rate Location/Type
10:23AM 42.6675 -83.3986 85° East 158 182 1,800  Level Cleveland Center
10:24AM 42.6711 -83.3364 85° East 233 268 4,100 3,180 Climbing Cleveland Center
10:25AM 42.6839 -83.2383 80° East 260 299 7,900 3,720 Climbing Cleveland Center
10:26AM 42.6522 -83.1633 120° Southeast 251 289 11,800 3,660 Climbing Cleveland Center
10:27AM 42.5772 -83.1631 180° South 204 235 15,300 2,940 Climbing Cleveland Center
10:28AM 42.4933 -83.1794 188° South 246 283 17,800 2,280 Climbing Cleveland Center
10:29AM 42.4033 -83.1983 189° South 278 320 19,900 1,080 Climbing Cleveland Center
10:30AM 42.3092 -83.2142 187° South 320 368 20,000  Climbing Cleveland Center
10:32AM 42.1206 -83.2567 189° South 367 422 20,000  Level Cleveland Center
10:33AM 42.0200 -83.2747 188° South 367 422 20,000  Level Cleveland Center
10:34AM 41.9217 -83.2931 188° South 367 422 20,000  Level Cleveland Center
10:35AM 41.8211 -83.3139 189° South 372 428 20,000  Level Cleveland Center
10:37AM 41.6292 -83.4028 199° South 367 422 20,000  Level Cleveland Center
10:39AM 41.4325 -83.4961 200° South 372 428 20,000  Level Indianapolis Center
10:40AM 41.3369 -83.5436 200° South 368 423 20,000  Level Indianapolis Center
10:41AM 41.2400 -83.5897 200° South 367 422 20,000  Level Indianapolis Center
10:42AM 41.1439 -83.6364 200° South 365 420 20,000  Level Indianapolis Center
10:43AM 41.0464 -83.6861 201° Southwest 372 428 20,000  Level Cleveland Center
10:44AM 40.9494 -83.7283 198° South 371 427 20,000  Level Cleveland Center
10:45AM 40.8339 -83.7861 201° Southwest 373 429 20,000  Level Indianapolis Center
10:46AM 40.7372 -83.8333 200° South 370 426 20,000  Level Indianapolis Center
10:48AM 40.6085 -83.8903 199° South  Level FlightAware Approximate
10:48AM 40.5431 -83.9242 199° South 367 422 20,000  Level Indianapolis Center
10:50AM 40.4179 -83.9769 198° South  Level FlightAware Approximate
10:50AM 40.3506 -84.0142 198° South 362 417 18,600  Level Indianapolis Center
10:51AM 40.2158 -84.0161 181° South 347 399 16,000 -2,100 Descending Indianapolis Center
10:53AM 40.0959 -83.9653 166° South  Level FlightAware Approximate
10:53AM 40.0544 -84.0067 166° South 338 389 12,300  Level Indianapolis Center
10:55AM 39.9471 -83.9325 152° Southeast  Level FlightAware Approximate
10:55AM 39.8839 -84.1364 152° Southeast 287 330 9,600  Level Indianapolis Center
10:56AM 39.8344 -84.1722 209° Southwest 286 329 8,300 -1,440 Descending Indianapolis Center
10:58AM 39.7375 -84.2447 210° Southwest  Level Estimated
10:59AM 39.6367 -84.3197 210° Southwest 247 284 4,000  Level Indianapolis Center
11:01AM 39.5333 -84.4000 211° Southwest 234 269 3,000 -420 Descending Cincinnati TRACON
11:02AM 39.4692 -84.4447 208° Southwest 232 267 2,700 -300 Descending Indianapolis Center
11:04AM 39.4167 -84.5500 237° Southwest 170 196 2,100 -360 Descending Cincinnati TRACON
11:05AM 39.3638 -84.5219 210° Southwest  Level Estimated
11:06AM 39.3638 -84.5219 311° West  Level Estimated
11:13AM 39.3638 -84.5219 311° West  Level Estimated
11:14AM 39.3638 -84.5219 311° West  Level Estimated